sensor_id;sensor_type;location;lat;lon;timestamp;P1;durP1;ratioP1;P2;durP2;ratioP2
45522;SDS011;31254;51.680;5.394;2023-04-03T00:01:13;4.47;;;2.40;;
45522;SDS011;31254;51.680;5.394;2023-04-03T00:03:43;5.53;;;3.57;;
45522;SDS011;31254;51.680;5.394;2023-04-03T00:06:10;7.57;;;3.00;;
45522;SDS011;31254;51.680;5.394;2023-04-03T00:08:38;8.23;;;3.33;;
45522;SDS011;31254;51.680;5.394;2023-04-03T00:11:06;6.07;;;3.20;;
45522;SDS011;31254;51.680;5.394;2023-04-03T00:13:34;3.87;;;2.63;;
45522;SDS011;31254;51.680;5.394;2023-04-03T00:16:01;5.33;;;3.20;;
45522;SDS011;31254;51.680;5.394;2023-04-03T00:18:29;5.13;;;2.93;;
45522;SDS011;31254;51.680;5.394;2023-04-03T00:20:56;8.07;;;3.13;;
45522;SDS011;31254;51.680;5.394;2023-04-03T00:23:23;6.90;;;3.77;;
45522;SDS011;31254;51.680;5.394;2023-04-03T00:25:50;6.40;;;3.23;;
45522;SDS011;31254;51.680;5.394;2023-04-03T00:28:17;5.40;;;2.77;;
45522;SDS011;31254;51.680;5.394;2023-04-03T00:30:44;5.57;;;3.40;;
45522;SDS011;31254;51.680;5.394;2023-04-03T00:33:14;7.17;;;2.80;;
45522;SDS011;31254;51.680;5.394;2023-04-03T00:35:45;6.57;;;2.90;;
45522;SDS011;31254;51.680;5.394;2023-04-03T00:38:12;7.17;;;3.10;;
45522;SDS011;31254;51.680;5.394;2023-04-03T00:40:43;5.57;;;2.90;;
45522;SDS011;31254;51.680;5.394;2023-04-03T00:43:15;5.70;;;2.50;;
45522;SDS011;31254;51.680;5.394;2023-04-03T00:45:56;4.67;;;2.93;;
45522;SDS011;31254;51.680;5.394;2023-04-03T00:48:31;7.27;;;2.80;;
45522;SDS011;31254;51.680;5.394;2023-04-03T00:51:02;6.27;;;3.20;;
45522;SDS011;31254;51.680;5.394;2023-04-03T00:53:33;6.43;;;3.00;;
45522;SDS011;31254;51.680;5.394;2023-04-03T00:56:08;4.67;;;2.70;;
45522;SDS011;31254;51.680;5.394;2023-04-03T00:58:46;5.77;;;2.77;;
45522;SDS011;31254;51.680;5.394;2023-04-03T01:01:18;4.83;;;2.77;;
45522;SDS011;31254;51.680;5.394;2023-04-03T01:03:51;6.90;;;3.00;;
45522;SDS011;31254;51.680;5.394;2023-04-03T01:06:21;6.40;;;2.87;;
45522;SDS011;31254;51.680;5.394;2023-04-03T01:08:54;8.30;;;3.07;;
45522;SDS011;31254;51.680;5.394;2023-04-03T01:11:22;5.63;;;2.43;;
45522;SDS011;31254;51.680;5.394;2023-04-03T01:13:49;3.90;;;2.50;;
45522;SDS011;31254;51.680;5.394;2023-04-03T01:16:16;5.10;;;2.50;;
45522;SDS011;31254;51.680;5.394;2023-04-03T01:18:43;4.13;;;2.37;;
45522;SDS011;31254;51.680;5.394;2023-04-03T01:23:48;8.07;;;3.30;;
45522;SDS011;31254;51.680;5.394;2023-04-03T01:26:32;5.47;;;2.80;;
45522;SDS011;31254;51.680;5.394;2023-04-03T01:29:00;5.80;;;2.80;;
45522;SDS011;31254;51.680;5.394;2023-04-03T01:31:28;6.13;;;2.50;;
45522;SDS011;31254;51.680;5.394;2023-04-03T01:34:00;5.20;;;2.50;;
45522;SDS011;31254;51.680;5.394;2023-04-03T01:36:29;4.60;;;2.50;;
45522;SDS011;31254;51.680;5.394;2023-04-03T01:38:59;8.40;;;2.80;;
45522;SDS011;31254;51.680;5.394;2023-04-03T01:41:27;4.23;;;2.43;;
45522;SDS011;31254;51.680;5.394;2023-04-03T01:43:54;4.90;;;2.20;;
45522;SDS011;31254;51.680;5.394;2023-04-03T01:46:21;7.13;;;2.30;;
45522;SDS011;31254;51.680;5.394;2023-04-03T01:48:48;6.97;;;2.70;;
45522;SDS011;31254;51.680;5.394;2023-04-03T01:51:15;6.27;;;2.33;;
45522;SDS011;31254;51.680;5.394;2023-04-03T01:53:42;8.40;;;2.67;;
45522;SDS011;31254;51.680;5.394;2023-04-03T01:56:09;6.73;;;2.50;;
45522;SDS011;31254;51.680;5.394;2023-04-03T01:58:38;5.63;;;2.60;;
45522;SDS011;31254;51.680;5.394;2023-04-03T02:01:05;5.77;;;2.50;;
45522;SDS011;31254;51.680;5.394;2023-04-03T02:03:33;3.57;;;2.13;;
45522;SDS011;31254;51.680;5.394;2023-04-03T02:06:00;4.50;;;2.00;;
45522;SDS011;31254;51.680;5.394;2023-04-03T02:08:29;5.13;;;2.10;;
45522;SDS011;31254;51.680;5.394;2023-04-03T02:10:58;4.37;;;2.23;;
45522;SDS011;31254;51.680;5.394;2023-04-03T02:13:26;6.57;;;2.27;;
45522;SDS011;31254;51.680;5.394;2023-04-03T02:15:56;3.27;;;1.97;;
45522;SDS011;31254;51.680;5.394;2023-04-03T02:18:23;6.17;;;2.53;;
45522;SDS011;31254;51.680;5.394;2023-04-03T02:20:52;4.73;;;2.37;;
45522;SDS011;31254;51.680;5.394;2023-04-03T02:23:24;5.80;;;2.20;;
45522;SDS011;31254;51.680;5.394;2023-04-03T02:26:01;4.53;;;1.87;;
45522;SDS011;31254;51.680;5.394;2023-04-03T02:28:32;3.67;;;2.03;;
45522;SDS011;31254;51.680;5.394;2023-04-03T02:30:59;4.83;;;2.20;;
45522;SDS011;31254;51.680;5.394;2023-04-03T02:33:26;7.97;;;2.53;;
45522;SDS011;31254;51.680;5.394;2023-04-03T02:35:56;6.20;;;2.13;;
45522;SDS011;31254;51.680;5.394;2023-04-03T02:38:25;5.77;;;2.30;;
45522;SDS011;31254;51.680;5.394;2023-04-03T02:40:52;5.23;;;2.30;;
45522;SDS011;31254;51.680;5.394;2023-04-03T02:43:19;3.87;;;2.13;;
45522;SDS011;31254;51.680;5.394;2023-04-03T02:45:46;4.67;;;2.57;;
45522;SDS011;31254;51.680;5.394;2023-04-03T02:48:12;6.50;;;2.30;;
45522;SDS011;31254;51.680;5.394;2023-04-03T02:50:41;4.27;;;2.07;;
45522;SDS011;31254;51.680;5.394;2023-04-03T02:53:08;4.93;;;2.40;;
45522;SDS011;31254;51.680;5.394;2023-04-03T02:55:35;5.67;;;2.33;;
45522;SDS011;31254;51.680;5.394;2023-04-03T02:58:01;7.87;;;2.73;;
45522;SDS011;31254;51.680;5.394;2023-04-03T03:00:34;7.27;;;2.50;;
45522;SDS011;31254;51.680;5.394;2023-04-03T03:03:02;6.93;;;2.80;;
45522;SDS011;31254;51.680;5.394;2023-04-03T03:05:29;5.80;;;2.70;;
45522;SDS011;31254;51.680;5.394;2023-04-03T03:07:57;6.77;;;2.47;;
45522;SDS011;31254;51.680;5.394;2023-04-03T03:10:24;7.67;;;2.27;;
45522;SDS011;31254;51.680;5.394;2023-04-03T03:12:51;7.33;;;2.77;;
45522;SDS011;31254;51.680;5.394;2023-04-03T03:15:18;7.70;;;2.30;;
45522;SDS011;31254;51.680;5.394;2023-04-03T03:17:47;8.73;;;2.13;;
45522;SDS011;31254;51.680;5.394;2023-04-03T03:20:16;4.87;;;2.40;;
45522;SDS011;31254;51.680;5.394;2023-04-03T03:22:43;5.70;;;2.87;;
45522;SDS011;31254;51.680;5.394;2023-04-03T03:25:13;8.33;;;2.50;;
45522;SDS011;31254;51.680;5.394;2023-04-03T03:27:40;6.87;;;2.30;;
45522;SDS011;31254;51.680;5.394;2023-04-03T03:30:07;5.67;;;2.53;;
45522;SDS011;31254;51.680;5.394;2023-04-03T03:32:34;4.70;;;2.40;;
45522;SDS011;31254;51.680;5.394;2023-04-03T03:35:01;7.40;;;2.47;;
45522;SDS011;31254;51.680;5.394;2023-04-03T03:37:27;7.80;;;2.53;;
45522;SDS011;31254;51.680;5.394;2023-04-03T03:39:54;3.30;;;2.33;;
45522;SDS011;31254;51.680;5.394;2023-04-03T03:42:21;6.90;;;2.97;;
45522;SDS011;31254;51.680;5.394;2023-04-03T03:44:48;7.73;;;2.50;;
45522;SDS011;31254;51.680;5.394;2023-04-03T03:47:18;5.07;;;2.50;;
45522;SDS011;31254;51.680;5.394;2023-04-03T03:49:45;6.20;;;2.47;;
45522;SDS011;31254;51.680;5.394;2023-04-03T03:52:11;6.83;;;2.40;;
45522;SDS011;31254;51.680;5.394;2023-04-03T03:54:38;6.93;;;2.53;;
45522;SDS011;31254;51.680;5.394;2023-04-03T03:57:05;6.10;;;2.17;;
45522;SDS011;31254;51.680;5.394;2023-04-03T03:59:32;4.13;;;2.53;;
45522;SDS011;31254;51.680;5.394;2023-04-03T04:01:59;3.23;;;2.07;;
45522;SDS011;31254;51.680;5.394;2023-04-03T04:04:26;5.53;;;2.40;;
45522;SDS011;31254;51.680;5.394;2023-04-03T04:06:53;5.57;;;1.97;;
45522;SDS011;31254;51.680;5.394;2023-04-03T04:09:20;7.37;;;2.40;;
45522;SDS011;31254;51.680;5.394;2023-04-03T04:11:50;4.13;;;1.90;;
45522;SDS011;31254;51.680;5.394;2023-04-03T04:14:19;6.83;;;2.07;;
45522;SDS011;31254;51.680;5.394;2023-04-03T04:16:48;5.97;;;2.50;;
45522;SDS011;31254;51.680;5.394;2023-04-03T04:19:15;4.80;;;1.87;;
45522;SDS011;31254;51.680;5.394;2023-04-03T04:21:44;3.87;;;2.00;;
45522;SDS011;31254;51.680;5.394;2023-04-03T04:24:11;4.63;;;1.80;;
45522;SDS011;31254;51.680;5.394;2023-04-03T04:26:38;8.70;;;2.33;;
45522;SDS011;31254;51.680;5.394;2023-04-03T04:29:05;6.83;;;2.67;;
45522;SDS011;31254;51.680;5.394;2023-04-03T04:31:31;4.47;;;2.30;;
45522;SDS011;31254;51.680;5.394;2023-04-03T04:33:58;4.83;;;2.20;;
45522;SDS011;31254;51.680;5.394;2023-04-03T04:36:28;4.83;;;2.20;;
45522;SDS011;31254;51.680;5.394;2023-04-03T04:38:58;5.77;;;2.20;;
45522;SDS011;31254;51.680;5.394;2023-04-03T04:41:24;5.20;;;2.10;;
45522;SDS011;31254;51.680;5.394;2023-04-03T04:43:54;5.23;;;1.80;;
45522;SDS011;31254;51.680;5.394;2023-04-03T04:46:21;6.33;;;1.87;;
45522;SDS011;31254;51.680;5.394;2023-04-03T04:48:48;4.83;;;2.20;;
45522;SDS011;31254;51.680;5.394;2023-04-03T04:51:17;5.37;;;2.37;;
45522;SDS011;31254;51.680;5.394;2023-04-03T04:53:43;6.93;;;2.33;;
45522;SDS011;31254;51.680;5.394;2023-04-03T04:56:10;6.10;;;2.27;;
45522;SDS011;31254;51.680;5.394;2023-04-03T04:58:37;5.90;;;2.10;;
45522;SDS011;31254;51.680;5.394;2023-04-03T05:01:05;5.00;;;2.43;;
45522;SDS011;31254;51.680;5.394;2023-04-03T05:03:34;5.27;;;2.37;;
45522;SDS011;31254;51.680;5.394;2023-04-03T05:06:02;5.20;;;2.57;;
45522;SDS011;31254;51.680;5.394;2023-04-03T05:08:29;7.47;;;2.80;;
45522;SDS011;31254;51.680;5.394;2023-04-03T05:10:58;6.60;;;2.60;;
45522;SDS011;31254;51.680;5.394;2023-04-03T05:13:30;4.73;;;2.77;;
45522;SDS011;31254;51.680;5.394;2023-04-03T05:15:56;6.10;;;2.87;;
45522;SDS011;31254;51.680;5.394;2023-04-03T05:18:23;8.80;;;2.97;;
45522;SDS011;31254;51.680;5.394;2023-04-03T05:20:50;7.33;;;2.83;;
45522;SDS011;31254;51.680;5.394;2023-04-03T05:23:20;7.77;;;2.53;;
45522;SDS011;31254;51.680;5.394;2023-04-03T05:25:46;6.47;;;2.03;;
45522;SDS011;31254;51.680;5.394;2023-04-03T05:28:15;6.50;;;2.33;;
45522;SDS011;31254;51.680;5.394;2023-04-03T05:30:42;5.57;;;2.63;;
45522;SDS011;31254;51.680;5.394;2023-04-03T05:33:09;5.27;;;2.60;;
45522;SDS011;31254;51.680;5.394;2023-04-03T05:35:37;8.37;;;2.37;;
45522;SDS011;31254;51.680;5.394;2023-04-03T05:38:08;4.53;;;2.40;;
45522;SDS011;31254;51.680;5.394;2023-04-03T05:40:37;7.97;;;2.80;;
45522;SDS011;31254;51.680;5.394;2023-04-03T05:43:04;6.13;;;2.53;;
45522;SDS011;31254;51.680;5.394;2023-04-03T05:45:31;5.33;;;2.20;;
45522;SDS011;31254;51.680;5.394;2023-04-03T05:48:00;7.33;;;2.60;;
45522;SDS011;31254;51.680;5.394;2023-04-03T05:50:29;8.40;;;2.70;;
45522;SDS011;31254;51.680;5.394;2023-04-03T05:52:57;8.17;;;2.40;;
45522;SDS011;31254;51.680;5.394;2023-04-03T05:55:25;7.63;;;2.07;;
45522;SDS011;31254;51.680;5.394;2023-04-03T05:57:51;6.00;;;2.30;;
45522;SDS011;31254;51.680;5.394;2023-04-03T06:00:18;4.73;;;2.10;;
45522;SDS011;31254;51.680;5.394;2023-04-03T06:02:45;7.17;;;2.37;;
45522;SDS011;31254;51.680;5.394;2023-04-03T06:05:15;4.57;;;2.30;;
45522;SDS011;31254;51.680;5.394;2023-04-03T06:07:41;4.30;;;1.90;;
45522;SDS011;31254;51.680;5.394;2023-04-03T06:10:10;9.60;;;2.43;;
45522;SDS011;31254;51.680;5.394;2023-04-03T06:12:38;8.30;;;2.20;;
45522;SDS011;31254;51.680;5.394;2023-04-03T06:15:05;5.70;;;1.97;;
45522;SDS011;31254;51.680;5.394;2023-04-03T06:17:34;7.10;;;2.20;;
45522;SDS011;31254;51.680;5.394;2023-04-03T06:20:01;7.77;;;2.20;;
45522;SDS011;31254;51.680;5.394;2023-04-03T06:22:28;3.73;;;1.80;;
45522;SDS011;31254;51.680;5.394;2023-04-03T06:24:56;4.73;;;1.90;;
45522;SDS011;31254;51.680;5.394;2023-04-03T06:27:23;4.07;;;2.07;;
45522;SDS011;31254;51.680;5.394;2023-04-03T06:29:52;6.93;;;2.03;;
45522;SDS011;31254;51.680;5.394;2023-04-03T06:32:19;5.20;;;2.10;;
45522;SDS011;31254;51.680;5.394;2023-04-03T06:34:48;5.27;;;2.17;;
45522;SDS011;31254;51.680;5.394;2023-04-03T06:37:18;9.07;;;2.13;;
45522;SDS011;31254;51.680;5.394;2023-04-03T06:39:47;6.20;;;1.60;;
45522;SDS011;31254;51.680;5.394;2023-04-03T06:42:17;7.97;;;2.45;;
45522;SDS011;31254;51.680;5.394;2023-04-03T06:44:44;5.00;;;1.93;;
45522;SDS011;31254;51.680;5.394;2023-04-03T06:47:14;5.63;;;1.87;;
45522;SDS011;31254;51.680;5.394;2023-04-03T06:49:42;7.80;;;2.17;;
45522;SDS011;31254;51.680;5.394;2023-04-03T06:52:09;4.40;;;1.80;;
45522;SDS011;31254;51.680;5.394;2023-04-03T06:54:38;5.57;;;2.20;;
45522;SDS011;31254;51.680;5.394;2023-04-03T06:57:06;7.30;;;2.80;;
45522;SDS011;31254;51.680;5.394;2023-04-03T06:59:34;7.17;;;2.40;;
45522;SDS011;31254;51.680;5.394;2023-04-03T07:02:03;6.47;;;2.10;;
45522;SDS011;31254;51.680;5.394;2023-04-03T07:04:31;4.40;;;1.63;;
45522;SDS011;31254;51.680;5.394;2023-04-03T07:06:58;6.65;;;1.90;;
45522;SDS011;31254;51.680;5.394;2023-04-03T07:09:24;4.70;;;2.30;;
45522;SDS011;31254;51.680;5.394;2023-04-03T07:11:52;4.78;;;2.03;;
45522;SDS011;31254;51.680;5.394;2023-04-03T07:14:19;5.25;;;1.95;;
45522;SDS011;31254;51.680;5.394;2023-04-03T07:16:48;3.88;;;1.80;;
45522;SDS011;31254;51.680;5.394;2023-04-03T07:19:14;6.30;;;1.90;;
45522;SDS011;31254;51.680;5.394;2023-04-03T07:21:41;4.93;;;1.60;;
45522;SDS011;31254;51.680;5.394;2023-04-03T07:24:09;7.50;;;2.10;;
45522;SDS011;31254;51.680;5.394;2023-04-03T07:26:41;7.13;;;2.05;;
45522;SDS011;31254;51.680;5.394;2023-04-03T07:29:09;5.22;;;1.50;;
45522;SDS011;31254;51.680;5.394;2023-04-03T07:31:36;5.32;;;1.80;;
45522;SDS011;31254;51.680;5.394;2023-04-03T07:34:05;5.05;;;1.80;;
45522;SDS011;31254;51.680;5.394;2023-04-03T07:36:32;6.33;;;1.80;;
45522;SDS011;31254;51.680;5.394;2023-04-03T07:38:59;7.85;;;1.80;;
45522;SDS011;31254;51.680;5.394;2023-04-03T07:41:26;8.70;;;1.80;;
45522;SDS011;31254;51.680;5.394;2023-04-03T07:43:53;6.07;;;1.48;;
45522;SDS011;31254;51.680;5.394;2023-04-03T07:46:21;2.38;;;1.30;;
45522;SDS011;31254;51.680;5.394;2023-04-03T07:48:48;6.85;;;1.20;;
45522;SDS011;31254;51.680;5.394;2023-04-03T07:51:15;8.65;;;1.45;;
45522;SDS011;31254;51.680;5.394;2023-04-03T07:53:42;4.50;;;1.33;;
45522;SDS011;31254;51.680;5.394;2023-04-03T07:56:09;4.03;;;1.20;;
45522;SDS011;31254;51.680;5.394;2023-04-03T07:58:36;5.93;;;1.50;;
45522;SDS011;31254;51.680;5.394;2023-04-03T08:01:03;6.25;;;1.30;;
45522;SDS011;31254;51.680;5.394;2023-04-03T08:03:31;7.35;;;1.30;;
45522;SDS011;31254;51.680;5.394;2023-04-03T08:06:04;5.47;;;1.27;;
45522;SDS011;31254;51.680;5.394;2023-04-03T08:08:40;8.15;;;1.65;;
45522;SDS011;31254;51.680;5.394;2023-04-03T08:11:07;3.80;;;1.20;;
45522;SDS011;31254;51.680;5.394;2023-04-03T08:13:35;3.97;;;1.52;;
45522;SDS011;31254;51.680;5.394;2023-04-03T08:16:11;4.10;;;1.02;;
45522;SDS011;31254;51.680;5.394;2023-04-03T08:18:44;3.10;;;0.98;;
45522;SDS011;31254;51.680;5.394;2023-04-03T08:21:12;3.20;;;1.20;;
45522;SDS011;31254;51.680;5.394;2023-04-03T08:23:41;2.70;;;1.10;;
45522;SDS011;31254;51.680;5.394;2023-04-03T08:26:14;5.00;;;1.67;;
45522;SDS011;31254;51.680;5.394;2023-04-03T08:28:44;3.72;;;1.40;;
45522;SDS011;31254;51.680;5.394;2023-04-03T08:31:12;3.72;;;1.20;;
45522;SDS011;31254;51.680;5.394;2023-04-03T08:33:41;1.63;;;1.02;;
45522;SDS011;31254;51.680;5.394;2023-04-03T08:36:18;3.78;;;1.05;;
45522;SDS011;31254;51.680;5.394;2023-04-03T08:38:54;4.00;;;0.90;;
45522;SDS011;31254;51.680;5.394;2023-04-03T08:41:34;2.97;;;1.15;;
45522;SDS011;31254;51.680;5.394;2023-04-03T08:46:56;2.75;;;1.05;;
45522;SDS011;31254;51.680;5.394;2023-04-03T08:49:55;1.45;;;0.63;;
45522;SDS011;31254;51.680;5.394;2023-04-03T08:55:23;3.40;;;1.00;;
45522;SDS011;31254;51.680;5.394;2023-04-03T08:58:13;2.70;;;0.80;;
45522;SDS011;31254;51.680;5.394;2023-04-03T09:00:47;3.55;;;0.90;;
45522;SDS011;31254;51.680;5.394;2023-04-03T09:03:20;2.20;;;0.80;;
45522;SDS011;31254;51.680;5.394;2023-04-03T09:06:07;2.20;;;0.90;;
45522;SDS011;31254;51.680;5.394;2023-04-03T09:09:06;1.88;;;0.90;;
45522;SDS011;31254;51.680;5.394;2023-04-03T09:14:34;9.40;;;1.20;;
45522;SDS011;31254;51.680;5.394;2023-04-03T09:17:03;2.90;;;0.90;;
45522;SDS011;31254;51.680;5.394;2023-04-03T09:25:02;3.38;;;0.90;;
45522;SDS011;31254;51.680;5.394;2023-04-03T09:27:30;1.42;;;0.70;;
45522;SDS011;31254;51.680;5.394;2023-04-03T09:29:57;2.85;;;0.60;;
45522;SDS011;31254;51.680;5.394;2023-04-03T09:32:29;1.48;;;0.55;;
45522;SDS011;31254;51.680;5.394;2023-04-03T09:35:04;2.88;;;0.88;;
45522;SDS011;31254;51.680;5.394;2023-04-03T09:40:45;1.60;;;0.70;;
45522;SDS011;31254;51.680;5.394;2023-04-03T09:45:47;1.98;;;0.77;;
45522;SDS011;31254;51.680;5.394;2023-04-03T09:48:19;5.20;;;1.00;;
45522;SDS011;31254;51.680;5.394;2023-04-03T09:55:58;1.95;;;0.50;;
45522;SDS011;31254;51.680;5.394;2023-04-03T10:01:26;1.70;;;0.60;;
45522;SDS011;31254;51.680;5.394;2023-04-03T10:06:44;2.75;;;0.68;;
45522;SDS011;31254;51.680;5.394;2023-04-03T10:09:17;2.15;;;0.77;;
45522;SDS011;31254;51.680;5.394;2023-04-03T10:12:10;3.70;;;0.60;;
45522;SDS011;31254;51.680;5.394;2023-04-03T10:14:40;1.30;;;0.50;;
45522;SDS011;31254;51.680;5.394;2023-04-03T10:25:31;2.05;;;0.50;;
45522;SDS011;31254;51.680;5.394;2023-04-03T10:28:17;1.27;;;0.60;;
45522;SDS011;31254;51.680;5.394;2023-04-03T10:36:19;1.85;;;0.70;;
45522;SDS011;31254;51.680;5.394;2023-04-03T10:41:46;2.03;;;0.57;;
45522;SDS011;31254;51.680;5.394;2023-04-03T10:47:17;1.15;;;0.52;;
45522;SDS011;31254;51.680;5.394;2023-04-03T10:52:41;0.95;;;0.55;;
45522;SDS011;31254;51.680;5.394;2023-04-03T10:57:57;0.50;;;0.40;;
45522;SDS011;31254;51.680;5.394;2023-04-03T11:00:39;4.05;;;0.40;;
45522;SDS011;31254;51.680;5.394;2023-04-03T11:03:27;1.00;;;0.40;;
45522;SDS011;31254;51.680;5.394;2023-04-03T11:06:19;2.03;;;0.55;;
45522;SDS011;31254;51.680;5.394;2023-04-03T11:08:55;2.30;;;0.75;;
45522;SDS011;31254;51.680;5.394;2023-04-03T11:11:37;1.23;;;0.60;;
45522;SDS011;31254;51.680;5.394;2023-04-03T11:14:11;0.73;;;0.40;;
45522;SDS011;31254;51.680;5.394;2023-04-03T11:22:42;2.90;;;0.55;;
45522;SDS011;31254;51.680;5.394;2023-04-03T11:27:43;2.45;;;0.50;;
45522;SDS011;31254;51.680;5.394;2023-04-03T11:30:15;0.40;;;0.30;;
45522;SDS011;31254;51.680;5.394;2023-04-03T11:35:32;3.30;;;0.50;;
45522;SDS011;31254;51.680;5.394;2023-04-03T11:38:04;1.20;;;0.38;;
45522;SDS011;31254;51.680;5.394;2023-04-03T11:40:41;3.45;;;0.68;;
45522;SDS011;31254;51.680;5.394;2023-04-03T11:46:01;3.05;;;0.63;;
45522;SDS011;31254;51.680;5.394;2023-04-03T11:51:37;0.40;;;0.40;;
45522;SDS011;31254;51.680;5.394;2023-04-03T11:53:55;1.20;;;0.60;;
45522;SDS011;31254;51.680;5.394;2023-04-03T12:24:28;2.95;;;0.88;;
45522;SDS011;31254;51.680;5.394;2023-04-03T12:29:28;1.55;;;0.68;;
45522;SDS011;31254;51.680;5.394;2023-04-03T12:32:12;1.77;;;0.75;;
45522;SDS011;31254;51.680;5.394;2023-04-03T12:35:02;2.20;;;0.77;;
45522;SDS011;31254;51.680;5.394;2023-04-03T12:40:49;3.45;;;0.93;;
45522;SDS011;31254;51.680;5.394;2023-04-03T12:43:26;4.97;;;1.17;;
45522;SDS011;31254;51.680;5.394;2023-04-03T12:46:14;3.00;;;0.90;;
45522;SDS011;31254;51.680;5.394;2023-04-03T12:51:18;8.18;;;0.80;;
45522;SDS011;31254;51.680;5.394;2023-04-03T12:53:48;1.98;;;0.90;;
45522;SDS011;31254;51.680;5.394;2023-04-03T12:56:19;2.92;;;0.82;;
45522;SDS011;31254;51.680;5.394;2023-04-03T12:58:46;1.73;;;0.75;;
45522;SDS011;31254;51.680;5.394;2023-04-03T13:01:14;4.43;;;0.70;;
45522;SDS011;31254;51.680;5.394;2023-04-03T13:03:47;3.25;;;0.63;;
45522;SDS011;31254;51.680;5.394;2023-04-03T13:08:53;2.53;;;0.90;;
45522;SDS011;31254;51.680;5.394;2023-04-03T13:11:23;2.13;;;0.60;;
45522;SDS011;31254;51.680;5.394;2023-04-03T13:13:59;3.40;;;1.15;;
45522;SDS011;31254;51.680;5.394;2023-04-03T13:16:31;3.65;;;0.90;;
45522;SDS011;31254;51.680;5.394;2023-04-03T13:19:02;3.60;;;1.10;;
45522;SDS011;31254;51.680;5.394;2023-04-03T13:21:30;2.67;;;0.93;;
45522;SDS011;31254;51.680;5.394;2023-04-03T13:24:00;3.13;;;1.10;;
45522;SDS011;31254;51.680;5.394;2023-04-03T13:26:40;2.13;;;1.05;;
45522;SDS011;31254;51.680;5.394;2023-04-03T13:29:15;2.67;;;1.08;;
45522;SDS011;31254;51.680;5.394;2023-04-03T13:31:58;3.50;;;0.82;;
45522;SDS011;31254;51.680;5.394;2023-04-03T13:34:28;3.63;;;1.05;;
45522;SDS011;31254;51.680;5.394;2023-04-03T13:37:01;1.48;;;0.77;;
45522;SDS011;31254;51.680;5.394;2023-04-03T13:39:32;2.92;;;1.00;;
45522;SDS011;31254;51.680;5.394;2023-04-03T13:42:17;5.55;;;0.90;;
45522;SDS011;31254;51.680;5.394;2023-04-03T13:45:05;2.75;;;0.93;;
45522;SDS011;31254;51.680;5.394;2023-04-03T13:47:38;3.15;;;0.90;;
45522;SDS011;31254;51.680;5.394;2023-04-03T13:50:17;4.55;;;1.00;;
45522;SDS011;31254;51.680;5.394;2023-04-03T13:52:59;1.05;;;0.57;;
45522;SDS011;31254;51.680;5.394;2023-04-03T13:58:20;4.22;;;1.08;;
45522;SDS011;31254;51.680;5.394;2023-04-03T14:00:50;4.03;;;1.13;;
45522;SDS011;31254;51.680;5.394;2023-04-03T14:06:07;3.00;;;1.17;;
45522;SDS011;31254;51.680;5.394;2023-04-03T14:08:36;3.83;;;1.20;;
45522;SDS011;31254;51.680;5.394;2023-04-03T14:11:13;2.25;;;0.90;;
45522;SDS011;31254;51.680;5.394;2023-04-03T14:13:43;3.10;;;1.10;;
45522;SDS011;31254;51.680;5.394;2023-04-03T14:16:14;4.70;;;1.30;;
45522;SDS011;31254;51.680;5.394;2023-04-03T14:18:44;2.60;;;0.70;;
45522;SDS011;31254;51.680;5.394;2023-04-03T14:21:16;3.53;;;1.02;;
45522;SDS011;31254;51.680;5.394;2023-04-03T14:23:45;3.03;;;1.10;;
45522;SDS011;31254;51.680;5.394;2023-04-03T14:26:16;1.58;;;0.88;;
45522;SDS011;31254;51.680;5.394;2023-04-03T14:28:48;3.67;;;1.20;;
45522;SDS011;31254;51.680;5.394;2023-04-03T14:31:17;3.05;;;1.00;;
45522;SDS011;31254;51.680;5.394;2023-04-03T14:33:45;2.85;;;1.00;;
45522;SDS011;31254;51.680;5.394;2023-04-03T14:36:16;3.38;;;1.00;;
45522;SDS011;31254;51.680;5.394;2023-04-03T14:38:53;4.28;;;1.23;;
45522;SDS011;31254;51.680;5.394;2023-04-03T14:41:23;5.88;;;1.40;;
45522;SDS011;31254;51.680;5.394;2023-04-03T14:43:52;4.72;;;1.20;;
45522;SDS011;31254;51.680;5.394;2023-04-03T14:49:19;4.82;;;1.17;;
45522;SDS011;31254;51.680;5.394;2023-04-03T14:51:48;3.42;;;1.23;;
45522;SDS011;31254;51.680;5.394;2023-04-03T14:54:19;4.97;;;1.42;;
45522;SDS011;31254;51.680;5.394;2023-04-03T14:56:52;4.15;;;1.38;;
45522;SDS011;31254;51.680;5.394;2023-04-03T14:59:19;3.95;;;1.00;;
45522;SDS011;31254;51.680;5.394;2023-04-03T15:01:47;3.80;;;1.58;;
45522;SDS011;31254;51.680;5.394;2023-04-03T15:04:16;2.35;;;0.55;;
45522;SDS011;31254;51.680;5.394;2023-04-03T15:06:45;6.32;;;0.98;;
45522;SDS011;31254;51.680;5.394;2023-04-03T15:09:26;7.35;;;1.23;;
45522;SDS011;31254;51.680;5.394;2023-04-03T15:11:56;2.42;;;1.35;;
45522;SDS011;31254;51.680;5.394;2023-04-03T15:14:22;2.22;;;1.00;;
45522;SDS011;31254;51.680;5.394;2023-04-03T15:17:05;5.53;;;1.42;;
45522;SDS011;31254;51.680;5.394;2023-04-03T15:19:37;2.03;;;0.82;;
45522;SDS011;31254;51.680;5.394;2023-04-03T15:22:09;3.25;;;1.25;;
45522;SDS011;31254;51.680;5.394;2023-04-03T15:24:47;6.18;;;1.10;;
45522;SDS011;31254;51.680;5.394;2023-04-03T15:27:14;4.88;;;1.20;;
45522;SDS011;31254;51.680;5.394;2023-04-03T15:29:43;3.60;;;0.90;;
45522;SDS011;31254;51.680;5.394;2023-04-03T15:32:11;2.42;;;1.10;;
45522;SDS011;31254;51.680;5.394;2023-04-03T15:34:39;4.63;;;1.00;;
45522;SDS011;31254;51.680;5.394;2023-04-03T15:37:06;1.27;;;0.60;;
45522;SDS011;31254;51.680;5.394;2023-04-03T15:39:32;3.40;;;1.02;;
45522;SDS011;31254;51.680;5.394;2023-04-03T15:41:59;2.95;;;0.90;;
45522;SDS011;31254;51.680;5.394;2023-04-03T15:44:35;1.90;;;0.80;;
45522;SDS011;31254;51.680;5.394;2023-04-03T15:47:02;1.95;;;0.90;;
45522;SDS011;31254;51.680;5.394;2023-04-03T15:49:29;2.72;;;0.98;;
45522;SDS011;31254;51.680;5.394;2023-04-03T15:52:02;2.08;;;1.02;;
45522;SDS011;31254;51.680;5.394;2023-04-03T15:54:29;1.60;;;0.60;;
45522;SDS011;31254;51.680;5.394;2023-04-03T15:56:55;2.17;;;0.80;;
45522;SDS011;31254;51.680;5.394;2023-04-03T15:59:23;5.75;;;1.08;;
45522;SDS011;31254;51.680;5.394;2023-04-03T16:01:52;4.50;;;1.10;;
45522;SDS011;31254;51.680;5.394;2023-04-03T16:04:19;5.22;;;1.25;;
45522;SDS011;31254;51.680;5.394;2023-04-03T16:06:51;4.05;;;2.05;;
45522;SDS011;31254;51.680;5.394;2023-04-03T16:09:18;2.47;;;1.10;;
45522;SDS011;31254;51.680;5.394;2023-04-03T16:11:45;2.67;;;0.90;;
45522;SDS011;31254;51.680;5.394;2023-04-03T16:14:12;2.65;;;1.20;;
45522;SDS011;31254;51.680;5.394;2023-04-03T16:16:39;6.63;;;1.10;;
45522;SDS011;31254;51.680;5.394;2023-04-03T16:19:07;4.45;;;1.20;;
45522;SDS011;31254;51.680;5.394;2023-04-03T16:21:36;8.07;;;1.40;;
45522;SDS011;31254;51.680;5.394;2023-04-03T16:24:03;2.88;;;0.98;;
45522;SDS011;31254;51.680;5.394;2023-04-03T16:26:30;1.73;;;0.60;;
45522;SDS011;31254;51.680;5.394;2023-04-03T16:28:57;4.68;;;1.08;;
45522;SDS011;31254;51.680;5.394;2023-04-03T16:31:24;3.80;;;1.10;;
45522;SDS011;31254;51.680;5.394;2023-04-03T16:33:54;7.05;;;1.40;;
45522;SDS011;31254;51.680;5.394;2023-04-03T16:36:23;4.07;;;1.13;;
45522;SDS011;31254;51.680;5.394;2023-04-03T16:38:53;2.45;;;0.98;;
45522;SDS011;31254;51.680;5.394;2023-04-03T16:41:20;3.53;;;0.90;;
45522;SDS011;31254;51.680;5.394;2023-04-03T16:43:47;2.92;;;1.30;;
45522;SDS011;31254;51.680;5.394;2023-04-03T16:46:14;4.72;;;1.20;;
45522;SDS011;31254;51.680;5.394;2023-04-03T16:48:40;4.32;;;0.80;;
45522;SDS011;31254;51.680;5.394;2023-04-03T16:51:07;2.78;;;1.10;;
45522;SDS011;31254;51.680;5.394;2023-04-03T16:53:37;3.10;;;1.20;;
45522;SDS011;31254;51.680;5.394;2023-04-03T16:56:04;4.15;;;1.17;;
45522;SDS011;31254;51.680;5.394;2023-04-03T16:58:31;3.47;;;0.80;;
45522;SDS011;31254;51.680;5.394;2023-04-03T17:00:57;3.15;;;0.93;;
45522;SDS011;31254;51.680;5.394;2023-04-03T17:03:24;4.60;;;1.23;;
45522;SDS011;31254;51.680;5.394;2023-04-03T17:05:52;4.07;;;1.00;;
45522;SDS011;31254;51.680;5.394;2023-04-03T17:08:18;3.58;;;1.25;;